Time;durP1;ratioP1;P1;durP2;ratioP2;P2;SDS_P1;SDS_P2;PMS_P1;PMS_P2;Temp;Humidity;BMP_temperature;BMP_pressure;BME280_temperature;BME280_humidity;BME280_pressure;Samples;Min_cycle;Max_cycle;Signal;HPM_P1;HPM_P2
2023/01/01 00:00:11;;;;;;;5.27;2.77;;;10.20;99.90;;;;;;4999396;28;20182;-86
2023/01/01 00:02:37;;;;;;;11.57;3.53;;;10.30;99.90;;;;;;4990200;28;20672;-86
2023/01/01 00:05:03;;;;;;;7.03;2.87;;;10.30;99.90;;;;;;4976002;28;20249;-86
2023/01/01 00:07:29;;;;;;;5.93;4.07;;;10.30;99.90;;;;;;4993595;28;20245;-86
2023/01/01 00:10:55;;;;;;;7.83;4.67;;;10.30;99.90;;;;;;4976588;28;20190;-84
2023/01/01 00:12:50;;;;;;;7.43;3.93;;;10.20;99.90;;;;;;4971840;28;20194;-84
2023/01/01 00:15:15;;;;;;;5.53;3.20;;;10.30;99.90;;;;;;4992330;28;20201;-88
2023/01/01 00:17:41;;;;;;;3.93;1.93;;;10.30;99.90;;;;;;4979466;28;20235;-85
2023/01/01 00:20:07;;;;;;;8.53;2.90;;;10.30;99.90;;;;;;4984453;28;20233;-86
2023/01/01 00:22:33;;;;;;;6.13;3.07;;;10.20;99.90;;;;;;5001186;28;20666;-86
2023/01/01 00:24:58;;;;;;;4.00;2.60;;;10.30;99.90;;;;;;5004339;28;20197;-86
2023/01/01 00:27:24;;;;;;;4.60;3.37;;;10.30;99.90;;;;;;4991092;28;20220;-86
2023/01/01 00:29:49;;;;;;;6.03;3.17;;;10.20;99.90;;;;;;4984158;28;20194;-85
2023/01/01 00:32:15;;;;;;;7.22;3.70;;;10.20;99.90;;;;;;4960548;28;20193;-84
2023/01/01 00:34:41;;;;;;;4.97;1.83;;;10.20;99.90;;;;;;4993923;28;20607;-85
2023/01/01 00:37:06;;;;;;;4.93;2.53;;;10.10;99.90;;;;;;5000187;28;20193;-85
2023/01/01 00:39:32;;;;;;;4.33;2.80;;;10.10;99.90;;;;;;5013093;28;20623;-84
2023/01/01 00:41:58;;;;;;;3.83;2.30;;;10.10;99.90;;;;;;4996247;28;20689;-85
2023/01/01 00:44:23;;;;;;;5.30;2.60;;;10.10;99.90;;;;;;4980367;28;20645;-85
2023/01/01 00:46:49;;;;;;;6.53;2.90;;;10.00;99.90;;;;;;4980394;28;20192;-85
2023/01/01 00:49:15;;;;;;;7.03;3.20;;;10.00;99.90;;;;;;4996678;28;20192;-85
2023/01/01 00:51:40;;;;;;;5.90;3.03;;;10.10;99.90;;;;;;4996062;28;20196;-85
2023/01/01 00:54:06;;;;;;;4.87;2.60;;;10.10;99.90;;;;;;4995895;28;20571;-84
2023/01/01 00:56:32;;;;;;;3.90;2.90;;;10.10;99.90;;;;;;4995493;28;20185;-84
2023/01/01 00:58:58;;;;;;;6.00;2.47;;;10.10;99.90;;;;;;4996020;28;20546;-85
2023/01/01 01:01:23;;;;;;;6.83;2.87;;;10.10;99.90;;;;;;4995459;28;20221;-86
2023/01/01 01:03:49;;;;;;;6.07;3.03;;;10.10;99.90;;;;;;5010435;28;20192;-84
2023/01/01 01:06:16;;;;;;;4.07;2.50;;;10.00;99.90;;;;;;5013487;28;20173;-85
2023/01/01 01:08:44;;;;;;;6.90;2.33;;;10.00;99.90;;;;;;5012859;28;20517;-85
2023/01/01 01:11:18;;;;;;;4.47;1.93;;;10.00;99.90;;;;;;4995836;28;20189;-85
2023/01/01 01:13:47;;;;;;;3.63;2.80;;;10.00;99.90;;;;;;4993223;28;20180;-85
2023/01/01 01:16:23;;;;;;;2.77;1.73;;;10.10;99.90;;;;;;4960590;28;20194;-85
2023/01/01 01:18:50;;;;;;;2.30;2.03;;;10.10;99.90;;;;;;4976556;28;20548;-85
2023/01/01 01:21:18;;;;;;;3.63;2.60;;;10.10;99.90;;;;;;4976407;28;20277;-84
2023/01/01 01:23:44;;;;;;;3.43;1.80;;;10.20;99.90;;;;;;4993423;28;20445;-86
2023/01/01 01:26:13;;;;;;;4.27;2.90;;;10.20;99.90;;;;;;4993792;28;20214;-84
2023/01/01 01:28:39;;;;;;;6.47;2.20;;;10.20;99.90;;;;;;4993923;28;20189;-84
2023/01/01 01:31:05;;;;;;;4.73;2.17;;;10.20;99.90;;;;;;4993800;28;20682;-85
2023/01/01 01:33:31;;;;;;;4.43;2.77;;;10.20;99.90;;;;;;4995805;28;20305;-85
2023/01/01 01:35:57;;;;;;;5.83;2.47;;;10.30;99.90;;;;;;4997435;28;20197;-85
2023/01/01 01:38:22;;;;;;;2.80;2.23;;;10.20;99.90;;;;;;4979614;28;20255;-85
2023/01/01 01:40:48;;;;;;;5.33;2.27;;;10.20;99.90;;;;;;4979648;28;20724;-85
2023/01/01 01:43:25;;;;;;;5.67;3.07;;;10.20;99.90;;;;;;4980034;28;20705;-85
2023/01/01 01:45:56;;;;;;;3.53;2.23;;;10.20;99.90;;;;;;5015865;28;20184;-85
2023/01/01 01:48:24;;;;;;;3.70;1.97;;;10.20;99.90;;;;;;5016623;28;20626;-85
2023/01/01 01:50:51;;;;;;;2.83;2.63;;;10.10;99.90;;;;;;4998707;28;20546;-86
2023/01/01 01:53:25;;;;;;;3.47;2.40;;;10.10;99.90;;;;;;5016170;28;20181;-85
2023/01/01 01:55:59;;;;;;;4.30;2.57;;;10.10;99.90;;;;;;4998562;28;20185;-85
2023/01/01 01:58:27;;;;;;;6.50;2.63;;;10.10;99.90;;;;;;5016963;28;20168;-85
2023/01/01 02:00:54;;;;;;;4.23;2.90;;;10.00;99.90;;;;;;5016051;28;20537;-85
2023/01/01 02:03:42;;;;;;;2.73;2.30;;;10.00;99.90;;;;;;5016443;28;20196;-84
2023/01/01 02:06:09;;;;;;;8.50;2.80;;;10.00;99.90;;;;;;5016727;28;20173;-84
2023/01/01 02:08:38;;;;;;;4.00;2.50;;;9.90;99.90;;;;;;4998647;28;20536;-85
2023/01/01 02:11:04;;;;;;;5.80;2.40;;;9.80;99.90;;;;;;5016689;28;20184;-84
2023/01/01 02:13:30;;;;;;;4.90;3.27;;;9.90;99.90;;;;;;4982404;28;20546;-84
2023/01/01 02:16:12;;;;;;;3.90;2.13;;;9.90;99.90;;;;;;4998857;28;20182;-84
2023/01/01 02:18:53;;;;;;;4.63;2.67;;;9.90;99.90;;;;;;4998399;28;20185;-86
2023/01/01 02:21:24;;;;;;;3.10;2.60;;;9.80;99.90;;;;;;4987023;28;20248;-85
2023/01/01 02:24:11;;;;;;;5.87;3.30;;;9.80;99.90;;;;;;4978798;28;20186;-85
2023/01/01 02:26:57;;;;;;;3.73;2.53;;;9.90;99.90;;;;;;4978596;28;20178;-85
2023/01/01 02:29:54;;;;;;;4.77;2.60;;;9.80;99.90;;;;;;4996536;28;20174;-85
2023/01/01 02:32:26;;;;;;;2.83;2.30;;;9.80;99.90;;;;;;4951839;28;20198;-85
2023/01/01 02:35:33;;;;;;;3.67;2.30;;;9.80;99.90;;;;;;4995611;28;20173;-84
2023/01/01 02:37:48;;;;;;;2.33;2.13;;;9.80;99.90;;;;;;4995385;28;20193;-84
2023/01/01 02:40:15;;;;;;;6.60;2.17;;;9.80;99.90;;;;;;4996287;28;20185;-84
2023/01/01 02:42:41;;;;;;;5.13;3.27;;;9.80;99.90;;;;;;4995582;28;20192;-85
2023/01/01 02:45:08;;;;;;;5.30;3.20;;;9.80;99.90;;;;;;4961339;28;20261;-84
2023/01/01 02:47:33;;;;;;;2.93;2.27;;;9.80;99.90;;;;;;4978449;28;20213;-84
2023/01/01 02:50:11;;;;;;;3.03;1.97;;;9.80;99.90;;;;;;4978268;28;20225;-85
2023/01/01 02:52:58;;;;;;;5.27;3.27;;;9.90;99.90;;;;;;4978091;28;20208;-86
2023/01/01 02:55:28;;;;;;;2.70;1.83;;;9.90;99.90;;;;;;4978066;28;20205;-85
2023/01/01 03:01:31;;;;;;;4.03;2.60;;;9.90;99.90;;;;;;4968058;28;20378;-84
2023/01/01 03:04:12;;;;;;;3.97;2.43;;;9.90;99.90;;;;;;4988698;28;20679;-84
2023/01/01 03:07:02;;;;;;;5.33;2.23;;;9.90;99.90;;;;;;4995197;28;20578;-84
2023/01/01 03:09:54;;;;;;;2.90;2.60;;;9.90;99.90;;;;;;4995144;28;20167;-84
2023/01/01 03:12:38;;;;;;;4.43;2.27;;;9.90;99.90;;;;;;4995459;28;20634;-84
2023/01/01 03:15:06;;;;;;;3.03;2.50;;;10.00;99.90;;;;;;4995343;28;20185;-84
2023/01/01 03:17:43;;;;;;;7.00;2.33;;;10.00;99.90;;;;;;4977644;28;20567;-84
2023/01/01 03:20:26;;;;;;;5.17;2.43;;;10.00;99.90;;;;;;4994857;28;20170;-85
2023/01/01 03:22:56;;;;;;;6.07;2.67;;;9.90;99.90;;;;;;4995188;28;20169;-84
2023/01/01 03:25:26;;;;;;;3.40;1.80;;;9.90;99.90;;;;;;4995184;28;20164;-84
2023/01/01 03:27:57;;;;;;;5.07;2.30;;;9.80;99.90;;;;;;4994849;28;20162;-85
2023/01/01 03:30:24;;;;;;;4.43;2.40;;;9.90;99.90;;;;;;4994838;28;20674;-85
2023/01/01 03:33:02;;;;;;;1.50;1.40;;;9.90;99.90;;;;;;4977356;28;20186;-85
2023/01/01 03:36:02;;;;;;;3.93;2.17;;;9.90;99.90;;;;;;4977607;28;20185;-85
2023/01/01 03:39:00;;;;;;;3.60;2.30;;;10.00;99.90;;;;;;4958181;28;20217;-84
2023/01/01 03:41:59;;;;;;;2.60;2.00;;;10.00;99.90;;;;;;4962371;28;20316;-84
2023/01/01 03:44:35;;;;;;;2.83;2.10;;;10.00;99.90;;;;;;4978597;28;20182;-84
2023/01/01 03:47:02;;;;;;;3.40;2.23;;;10.10;99.90;;;;;;4995296;28;20233;-84
2023/01/01 03:49:29;;;;;;;4.97;2.67;;;10.10;99.90;;;;;;4967313;28;20182;-83
2023/01/01 03:52:14;;;;;;;2.13;1.83;;;10.10;99.90;;;;;;5002015;28;20174;-86
2023/01/01 03:55:00;;;;;;;5.77;1.90;;;10.20;99.90;;;;;;5001947;28;20201;-84
2023/01/01 03:58:01;;;;;;;2.60;1.80;;;10.20;99.90;;;;;;5018680;28;20182;-84
2023/01/01 04:00:34;;;;;;;3.35;1.73;;;10.20;99.90;;;;;;4996367;28;20243;-84
2023/01/01 04:03:12;;;;;;;5.22;2.10;;;10.20;99.90;;;;;;4996063;28;20173;-83
2023/01/01 04:05:40;;;;;;;3.43;1.73;;;10.20;99.90;;;;;;5018648;28;20217;-85
2023/01/01 04:08:07;;;;;;;2.57;1.83;;;10.20;99.90;;;;;;5018386;28;20254;-84
2023/01/01 04:10:38;;;;;;;1.57;1.40;;;10.10;99.90;;;;;;5001009;28;20241;-84
2023/01/01 04:13:05;;;;;;;2.80;2.37;;;10.10;99.90;;;;;;5000665;28;20165;-84
2023/01/01 04:15:31;;;;;;;6.63;2.40;;;10.20;99.90;;;;;;4962061;28;20192;-84
2023/01/01 04:17:57;;;;;;;6.63;2.07;;;10.10;99.90;;;;;;4977741;28;20194;-85
2023/01/01 04:20:23;;;;;;;2.03;1.53;;;10.10;99.90;;;;;;4978426;28;20520;-85
2023/01/01 04:22:49;;;;;;;3.70;2.77;;;10.10;99.90;;;;;;4994978;28;20186;-85
2023/01/01 04:25:16;;;;;;;3.00;2.03;;;10.10;99.90;;;;;;4994776;28;20181;-84
2023/01/01 04:27:42;;;;;;;3.00;2.20;;;10.20;99.90;;;;;;4994606;28;20228;-84
2023/01/01 04:30:10;;;;;;;3.00;2.03;;;10.20;99.90;;;;;;4977709;28;20189;-84
2023/01/01 04:32:37;;;;;;;3.33;2.37;;;10.20;99.90;;;;;;4994575;28;20252;-83
2023/01/01 04:35:03;;;;;;;5.33;2.87;;;10.20;99.90;;;;;;4976881;28;20186;-84
2023/01/01 04:37:29;;;;;;;2.03;1.57;;;10.20;99.90;;;;;;4994606;28;20209;-84
2023/01/01 04:39:55;;;;;;;2.63;1.97;;;10.20;99.90;;;;;;4976946;28;20216;-84
2023/01/01 04:42:20;;;;;;;2.77;1.40;;;10.30;99.90;;;;;;4994497;28;20210;-84
2023/01/01 04:44:46;;;;;;;4.03;2.23;;;10.30;99.90;;;;;;4994339;28;20193;-84
2023/01/01 04:47:12;;;;;;;4.80;1.73;;;10.20;99.90;;;;;;4960464;28;20662;-84
2023/01/01 04:49:37;;;;;;;4.63;2.50;;;10.20;99.90;;;;;;4977063;28;20193;-84
2023/01/01 04:52:03;;;;;;;3.37;1.77;;;10.20;99.90;;;;;;4976638;28;20654;-84
2023/01/01 04:54:29;;;;;;;5.07;2.70;;;10.10;99.90;;;;;;4994124;28;20615;-84
2023/01/01 04:56:54;;;;;;;4.20;1.43;;;10.10;99.90;;;;;;4960756;28;20186;-84
2023/01/01 04:59:20;;;;;;;2.77;2.20;;;10.00;99.90;;;;;;4976825;28;20650;-84
2023/01/01 05:01:46;;;;;;;3.50;1.90;;;10.00;99.90;;;;;;4960542;28;20222;-84
2023/01/01 05:04:13;;;;;;;3.03;2.43;;;10.00;99.90;;;;;;4976344;28;20610;-84
2023/01/01 05:06:39;;;;;;;3.07;1.83;;;9.90;99.90;;;;;;4976380;28;20210;-84
2023/01/01 05:09:04;;;;;;;3.67;2.70;;;9.90;99.90;;;;;;4996618;28;20221;-84
2023/01/01 05:11:31;;;;;;;4.83;2.30;;;9.90;99.90;;;;;;4997490;28;20658;-84
2023/01/01 05:14:01;;;;;;;2.73;1.67;;;9.90;99.90;;;;;;4979696;28;20186;-84
2023/01/01 05:16:29;;;;;;;1.10;0.93;;;9.90;99.90;;;;;;4997252;28;20186;-84
2023/01/01 05:18:55;;;;;;;2.27;1.63;;;9.80;99.90;;;;;;4997680;28;20178;-84
2023/01/01 05:21:24;;;;;;;3.17;1.70;;;9.90;99.90;;;;;;4997054;28;20212;-84
2023/01/01 05:23:58;;;;;;;2.00;1.37;;;9.80;99.90;;;;;;4997639;28;20181;-84
2023/01/01 05:26:32;;;;;;;1.60;1.50;;;9.80;99.90;;;;;;4997947;28;20177;-85
2023/01/01 05:28:59;;;;;;;2.20;1.93;;;9.80;99.90;;;;;;4997620;28;20177;-84
2023/01/01 05:31:32;;;;;;;2.77;1.63;;;9.80;99.90;;;;;;4997881;28;20212;-84
2023/01/01 05:33:58;;;;;;;4.10;2.60;;;9.70;99.90;;;;;;4997412;28;20174;-85
2023/01/01 05:36:27;;;;;;;1.80;1.70;;;9.70;99.90;;;;;;4997245;28;20178;-84
2023/01/01 05:38:54;;;;;;;4.20;1.53;;;9.80;99.90;;;;;;4979943;28;20526;-83
2023/01/01 05:41:21;;;;;;;1.47;1.37;;;9.80;99.90;;;;;;4997142;28;20267;-84
2023/01/01 05:43:47;;;;;;;1.83;1.63;;;9.70;99.90;;;;;;4964209;28;20265;-84
2023/01/01 05:46:17;;;;;;;2.77;2.03;;;9.70;99.90;;;;;;4963951;28;20182;-84
2023/01/01 05:48:43;;;;;;;2.63;1.77;;;9.80;99.90;;;;;;4997684;28;20177;-84
2023/01/01 05:51:16;;;;;;;2.67;1.50;;;9.80;99.90;;;;;;4996513;28;20545;-84
2023/01/01 05:53:43;;;;;;;3.00;2.00;;;9.70;99.90;;;;;;4997304;28;20252;-85
2023/01/01 05:56:10;;;;;;;1.93;1.30;;;9.70;99.90;;;;;;4997159;28;20340;-85
2023/01/01 05:58:36;;;;;;;5.27;2.30;;;9.60;99.90;;;;;;4997400;28;20674;-84
2023/01/01 06:01:13;;;;;;;2.80;1.87;;;9.60;99.90;;;;;;4963510;28;20217;-86
2023/01/01 06:03:41;;;;;;;1.93;1.40;;;9.50;99.90;;;;;;4996607;28;20180;-84
2023/01/01 06:06:10;;;;;;;1.87;1.57;;;9.50;99.90;;;;;;4996396;28;20177;-86
2023/01/01 06:08:36;;;;;;;3.17;2.03;;;9.50;99.90;;;;;;4978735;28;20196;-84
2023/01/01 06:11:03;;;;;;;2.50;1.97;;;9.50;99.90;;;;;;4996138;28;20178;-84
2023/01/01 06:13:30;;;;;;;1.87;1.77;;;9.50;99.90;;;;;;4996062;28;20609;-83
2023/01/01 06:15:58;;;;;;;2.50;2.10;;;9.50;99.90;;;;;;4996079;28;20232;-84
2023/01/01 06:18:25;;;;;;;3.13;2.30;;;9.40;99.90;;;;;;4995761;28;20185;-84
2023/01/01 06:20:51;;;;;;;2.53;2.17;;;9.30;99.90;;;;;;4995425;28;20209;-84
2023/01/01 06:23:17;;;;;;;1.70;1.60;;;9.40;99.90;;;;;;4996458;28;20189;-84
2023/01/01 06:25:43;;;;;;;4.60;3.03;;;9.30;99.90;;;;;;4996600;28;20188;-84
2023/01/01 06:28:09;;;;;;;2.53;1.80;;;9.30;99.90;;;;;;4996457;28;20210;-85
2023/01/01 06:30:36;;;;;;;4.87;2.67;;;9.30;99.90;;;;;;4996574;28;20188;-84
2023/01/01 06:33:02;;;;;;;3.87;2.50;;;9.30;99.90;;;;;;4978944;28;20182;-84
2023/01/01 06:35:29;;;;;;;5.57;2.70;;;9.30;99.90;;;;;;4996078;28;20632;-84
2023/01/01 06:37:57;;;;;;;5.37;2.67;;;9.30;99.90;;;;;;4978788;28;20213;-84
2023/01/01 06:40:22;;;;;;;2.53;1.83;;;9.20;99.90;;;;;;4962677;28;20183;-85
2023/01/01 06:42:48;;;;;;;3.80;2.53;;;9.20;99.90;;;;;;4995736;28;20189;-84
2023/01/01 06:45:14;;;;;;;4.60;2.67;;;9.20;99.90;;;;;;4962107;28;20189;-84
2023/01/01 06:47:39;;;;;;;2.90;2.23;;;9.20;99.90;;;;;;4978475;28;20563;-84
2023/01/01 06:50:06;;;;;;;2.60;1.83;;;9.10;99.90;;;;;;4995436;28;20519;-84
2023/01/01 06:52:31;;;;;;;5.50;2.47;;;9.10;99.90;;;;;;4977913;28;20186;-84
2023/01/01 06:54:57;;;;;;;4.80;2.67;;;9.20;99.90;;;;;;4995380;28;20640;-84
2023/01/01 06:57:23;;;;;;;6.10;2.77;;;9.20;99.90;;;;;;4977701;28;20186;-84
2023/01/01 06:59:49;;;;;;;4.67;3.17;;;9.20;99.90;;;;;;4962481;28;20646;-84
2023/01/01 07:02:14;;;;;;;3.13;2.13;;;9.20;99.90;;;;;;4977754;28;20209;-84
2023/01/01 07:04:40;;;;;;;5.87;2.63;;;9.10;99.90;;;;;;4995234;28;20225;-84
2023/01/01 07:07:06;;;;;;;6.90;3.13;;;9.10;99.90;;;;;;4977387;28;20632;-84
2023/01/01 07:09:31;;;;;;;4.60;3.07;;;9.10;99.90;;;;;;4993950;28;20182;-84
2023/01/01 07:11:57;;;;;;;6.63;2.07;;;9.10;99.90;;;;;;4995249;28;20240;-84
2023/01/01 07:14:23;;;;;;;3.07;2.00;;;9.20;99.90;;;;;;4977643;28;20260;-84
2023/01/01 07:16:48;;;;;;;2.97;2.57;;;9.20;99.90;;;;;;4995247;28;20209;-84
2023/01/01 07:19:14;;;;;;;4.73;2.77;;;9.30;99.90;;;;;;4981381;28;20193;-84
2023/01/01 07:21:46;;;;;;;1.50;1.40;;;9.30;99.90;;;;;;5004427;28;20214;-84
2023/01/01 07:24:13;;;;;;;4.50;2.93;;;9.30;99.90;;;;;;4996134;28;20522;-86
2023/01/01 07:26:40;;;;;;;3.70;1.70;;;9.30;99.90;;;;;;5001409;28;20186;-85
2023/01/01 07:29:07;;;;;;;2.47;2.07;;;9.40;99.90;;;;;;4991983;28;20200;-84
2023/01/01 07:31:34;;;;;;;4.37;2.57;;;9.40;99.90;;;;;;4996443;28;20282;-84
2023/01/01 07:34:00;;;;;;;2.77;1.73;;;9.40;99.90;;;;;;5010010;28;20634;-84
2023/01/01 07:36:26;;;;;;;2.40;2.20;;;9.50;99.90;;;;;;4977197;28;20197;-83
2023/01/01 07:38:51;;;;;;;2.73;1.83;;;9.50;99.90;;;;;;4997911;28;20196;-83
2023/01/01 07:41:17;;;;;;;5.57;1.87;;;9.60;99.90;;;;;;4964255;28;20209;-84
2023/01/01 07:43:43;;;;;;;4.00;2.03;;;9.60;99.90;;;;;;4980447;28;20187;-84
2023/01/01 07:46:11;;;;;;;4.10;2.60;;;9.70;99.90;;;;;;4997005;28;20263;-84
2023/01/01 07:48:37;;;;;;;2.70;2.07;;;9.70;99.90;;;;;;5013907;28;20177;-84
2023/01/01 07:51:03;;;;;;;2.57;2.27;;;9.70;99.90;;;;;;4993336;28;20643;-83
2023/01/01 07:53:28;;;;;;;2.37;1.47;;;9.70;99.90;;;;;;4977008;28;20240;-84
2023/01/01 07:55:54;;;;;;;3.23;1.97;;;9.70;99.90;;;;;;4977054;28;20174;-84
2023/01/01 07:58:21;;;;;;;4.40;2.23;;;9.80;99.90;;;;;;4961091;28;20181;-84
2023/01/01 08:00:47;;;;;;;2.90;2.20;;;9.80;99.90;;;;;;4977125;28;20237;-86
2023/01/01 08:03:13;;;;;;;6.47;2.60;;;9.80;99.90;;;;;;4976276;28;20173;-84
2023/01/01 08:05:39;;;;;;;3.33;1.90;;;9.80;99.90;;;;;;4993397;28;20230;-84
2023/01/01 08:08:06;;;;;;;4.97;2.57;;;9.80;99.90;;;;;;4976333;28;20516;-84
2023/01/01 08:10:32;;;;;;;3.40;2.33;;;9.70;99.90;;;;;;4975931;28;20201;-84
2023/01/01 08:13:02;;;;;;;5.03;2.47;;;9.80;99.90;;;;;;4978200;28;20186;-84
2023/01/01 08:15:28;;;;;;;6.83;2.40;;;9.80;99.90;;;;;;4991726;28;20186;-84
2023/01/01 08:18:02;;;;;;;4.60;2.50;;;9.80;99.90;;;;;;4996633;28;20189;-84
2023/01/01 08:20:29;;;;;;;4.00;2.20;;;9.80;99.90;;;;;;5003004;28;20213;-84
2023/01/01 08:22:54;;;;;;;8.70;3.25;;;9.80;99.90;;;;;;5002663;28;20208;-84
2023/01/01 08:25:21;;;;;;;3.60;2.07;;;9.90;99.90;;;;;;4984900;28;20628;-85
2023/01/01 08:27:47;;;;;;;3.43;1.97;;;9.90;99.90;;;;;;5002217;28;20182;-83
2023/01/01 08:30:14;;;;;;;3.00;2.03;;;9.90;99.90;;;;;;4976997;28;20192;-84
2023/01/01 08:32:39;;;;;;;3.37;2.00;;;10.00;99.90;;;;;;5001963;28;20194;-84
2023/01/01 08:35:06;;;;;;;6.30;3.03;;;10.10;99.90;;;;;;5012849;28;20207;-84
2023/01/01 08:37:31;;;;;;;3.17;2.08;;;10.30;99.90;;;;;;5012819;28;20185;-83
2023/01/01 08:39:57;;;;;;;6.32;2.67;;;10.30;99.90;;;;;;4995369;28;20185;-84
2023/01/01 08:42:23;;;;;;;2.50;2.03;;;10.50;99.90;;;;;;5012966;28;20224;-85
2023/01/01 08:44:48;;;;;;;2.42;2.22;;;10.50;99.90;;;;;;5016909;28;20200;-84
2023/01/01 08:47:19;;;;;;;3.85;2.33;;;10.60;99.90;;;;;;5015489;28;20185;-84
2023/01/01 08:49:45;;;;;;;1.73;1.58;;;10.80;99.90;;;;;;5002304;28;20182;-84
2023/01/01 08:52:11;;;;;;;3.30;2.58;;;10.90;99.90;;;;;;4997203;28;20511;-84
2023/01/01 08:54:37;;;;;;;1.83;1.63;;;11.00;99.90;;;;;;4979660;28;20224;-85
2023/01/01 08:57:03;;;;;;;2.65;2.15;;;11.00;99.90;;;;;;4963961;28;20701;-84
2023/01/01 08:59:29;;;;;;;1.75;1.08;;;11.10;99.90;;;;;;4996677;28;20182;-84
2023/01/01 09:01:55;;;;;;;2.88;1.92;;;11.10;99.90;;;;;;4964318;28;20689;-83
2023/01/01 09:04:20;;;;;;;4.75;1.95;;;11.30;99.90;;;;;;5016173;28;20581;-83
2023/01/01 09:06:46;;;;;;;2.50;1.80;;;11.30;99.90;;;;;;4992821;28;20576;-84
2023/01/01 09:09:12;;;;;;;3.75;2.05;;;11.40;99.90;;;;;;5013390;28;20189;-84
2023/01/01 09:11:38;;;;;;;4.80;2.72;;;11.40;99.90;;;;;;5015999;28;20204;-84
2023/01/01 09:14:03;;;;;;;6.03;2.67;;;11.40;99.90;;;;;;4980116;28;20268;-83
2023/01/01 09:16:29;;;;;;;4.65;1.95;;;11.40;99.90;;;;;;5004950;28;20204;-84
2023/01/01 09:18:54;;;;;;;5.20;1.63;;;11.50;99.90;;;;;;4998972;28;20170;-83
2023/01/01 09:21:20;;;;;;;1.77;1.45;;;11.50;99.90;;;;;;4998707;28;20288;-84
2023/01/01 09:23:46;;;;;;;1.55;1.30;;;11.50;99.90;;;;;;5016119;28;20169;-83
2023/01/01 09:26:11;;;;;;;2.15;1.58;;;11.60;99.90;;;;;;4998709;28;20560;-84
2023/01/01 09:28:37;;;;;;;4.75;2.08;;;11.60;99.90;;;;;;5008263;28;20190;-84
2023/01/01 09:31:07;;;;;;;3.10;2.10;;;11.60;99.90;;;;;;4984114;28;20185;-83
2023/01/01 09:33:33;;;;;;;2.20;1.40;;;11.70;99.90;;;;;;5015640;28;20185;-82
2023/01/01 09:36:27;;;;;;;4.55;2.42;;;11.70;99.90;;;;;;5000861;28;20531;-84
2023/01/01 09:38:53;;;;;;;3.47;1.30;;;11.70;99.90;;;;;;5010633;28;20193;-85
2023/01/01 09:41:34;;;;;;;5.35;2.42;;;11.70;99.90;;;;;;5018506;28;20213;-84
2023/01/01 09:44:13;;;;;;;3.47;2.10;;;11.80;99.90;;;;;;5000685;28;20187;-84
2023/01/01 09:46:39;;;;;;;3.03;2.30;;;11.80;99.90;;;;;;5017924;28;20165;-85
2023/01/01 09:49:17;;;;;;;2.67;1.90;;;11.90;99.90;;;;;;4987781;28;20244;-84
2023/01/01 09:51:52;;;;;;;4.50;2.60;;;11.90;99.90;;;;;;5025590;28;20213;-85
2023/01/01 09:54:32;;;;;;;3.45;1.63;;;11.90;99.90;;;;;;5020666;28;20150;-84
2023/01/01 09:57:00;;;;;;;2.42;1.73;;;11.90;99.90;;;;;;5023056;28;20183;-85
2023/01/01 09:59:26;;;;;;;2.15;1.77;;;11.90;99.90;;;;;;5029003;28;20204;-84
2023/01/01 10:01:52;;;;;;;4.53;2.70;;;11.90;99.90;;;;;;5008897;28;20206;-84
2023/01/01 10:04:30;;;;;;;3.08;1.85;;;11.90;99.90;;;;;;5004305;28;20228;-84
2023/01/01 10:07:28;;;;;;;3.67;2.60;;;11.90;99.90;;;;;;4995825;28;20197;-84
2023/01/01 10:09:54;;;;;;;3.40;1.90;;;11.80;99.90;;;;;;5008914;28;20206;-86
2023/01/01 10:12:38;;;;;;;5.22;2.15;;;11.90;99.90;;;;;;5007559;28;20295;-85
2023/01/01 10:15:16;;;;;;;4.68;2.65;;;11.90;99.90;;;;;;5018578;28;20172;-83
2023/01/01 10:17:46;;;;;;;3.20;2.20;;;11.90;99.90;;;;;;4999875;28;20169;-84
2023/01/01 10:20:25;;;;;;;3.42;1.95;;;12.10;99.90;;;;;;5000702;28;20177;-84
2023/01/01 10:22:58;;;;;;;3.95;2.45;;;12.10;99.90;;;;;;4999168;28;20271;-83
2023/01/01 10:25:26;;;;;;;4.57;2.03;;;12.10;99.90;;;;;;5016789;28;20165;-85
2023/01/01 10:27:58;;;;;;;2.63;1.80;;;12.20;99.90;;;;;;5016669;28;20635;-83
2023/01/01 10:30:25;;;;;;;7.45;1.98;;;12.30;99.90;;;;;;5015838;28;20536;-85
2023/01/01 10:32:52;;;;;;;5.65;2.88;;;12.40;99.90;;;;;;4994756;28;20224;-84
2023/01/01 10:35:21;;;;;;;4.40;2.45;;;12.40;99.90;;;;;;5006172;28;20177;-84
2023/01/01 10:37:51;;;;;;;4.15;2.40;;;12.50;99.90;;;;;;4996454;28;20174;-85
2023/01/01 10:40:22;;;;;;;4.55;2.47;;;12.60;99.90;;;;;;4979931;28;20597;-85
2023/01/01 10:42:53;;;;;;;4.80;1.83;;;12.60;99.90;;;;;;4996372;28;20189;-85
2023/01/01 10:45:34;;;;;;;5.95;2.15;;;12.70;99.90;;;;;;4978653;28;20189;-84
2023/01/01 10:48:13;;;;;;;6.10;2.40;;;12.70;99.90;;;;;;4996162;28;20302;-83
2023/01/01 10:51:00;;;;;;;2.63;1.98;;;12.70;99.90;;;;;;5003096;28;20173;-83
2023/01/01 10:53:27;;;;;;;5.03;2.38;;;12.80;99.90;;;;;;4988253;28;20174;-86
2023/01/01 10:56:16;;;;;;;5.28;3.08;;;12.90;99.90;;;;;;4995195;28;20630;-86
2023/01/01 10:58:47;;;;;;;7.85;2.22;;;12.90;99.90;;;;;;4999389;28;20642;-83
2023/01/01 11:01:23;;;;;;;4.72;2.55;;;12.90;99.90;;;;;;4986566;28;20220;-84
2023/01/01 11:04:07;;;;;;;3.85;2.70;;;12.90;99.90;;;;;;5000464;28;20196;-83
2023/01/01 11:06:38;;;;;;;8.43;2.55;;;12.90;99.90;;;;;;4991854;28;20188;-84
2023/01/01 11:09:18;;;;;;;5.95;2.80;;;13.10;99.90;;;;;;5006852;28;20257;-83
2023/01/01 11:11:54;;;;;;;3.70;2.67;;;13.20;99.90;;;;;;5003266;28;20173;-83
2023/01/01 11:14:27;;;;;;;2.80;2.20;;;13.30;99.90;;;;;;5003474;28;20275;-84
2023/01/01 11:16:54;;;;;;;2.38;1.88;;;13.30;99.90;;;;;;4985904;28;20173;-83
2023/01/01 11:19:27;;;;;;;5.40;2.78;;;13.30;99.90;;;;;;5011045;28;20188;-83
2023/01/01 11:21:53;;;;;;;5.07;2.72;;;13.60;99.90;;;;;;5003146;28;20309;-83
2023/01/01 11:24:22;;;;;;;2.10;1.67;;;14.00;99.90;;;;;;5009258;28;20707;-83
2023/01/01 11:26:49;;;;;;;3.50;2.10;;;14.20;99.90;;;;;;4997723;28;20213;-84
2023/01/01 11:29:27;;;;;;;5.65;2.65;;;14.40;99.90;;;;;;4985110;28;20186;-84
2023/01/01 11:31:54;;;;;;;5.45;2.38;;;14.80;99.90;;;;;;4999037;28;20192;-85
2023/01/01 11:34:40;;;;;;;4.70;2.60;;;15.20;99.90;;;;;;4952858;28;20232;-85
2023/01/01 11:37:10;;;;;;;8.00;2.20;;;15.50;99.90;;;;;;5000349;28;20176;-85
2023/01/01 11:39:36;;;;;;;3.88;2.42;;;15.80;99.90;;;;;;4993939;28;20177;-85
2023/01/01 11:42:04;;;;;;;2.90;2.33;;;15.90;99.90;;;;;;4975511;28;20213;-85
2023/01/01 11:44:29;;;;;;;8.55;3.10;;;16.00;99.90;;;;;;4999530;28;20177;-85
2023/01/01 11:46:56;;;;;;;5.65;3.15;;;16.00;99.90;;;;;;5003122;28;20548;-85
2023/01/01 11:49:27;;;;;;;5.32;2.35;;;15.90;99.90;;;;;;5001446;28;20189;-85
2023/01/01 11:51:53;;;;;;;6.10;2.55;;;16.00;99.90;;;;;;5002146;28;20219;-85
2023/01/01 11:54:27;;;;;;;5.10;2.78;;;16.20;99.90;;;;;;4984442;28;20189;-84
2023/01/01 11:56:59;;;;;;;6.78;2.88;;;15.90;99.90;;;;;;4979590;28;20209;-84
2023/01/01 11:59:31;;;;;;;5.18;2.72;;;15.50;99.90;;;;;;4986345;28;20256;-86
2023/01/01 12:02:01;;;;;;;6.88;3.08;;;15.20;99.90;;;;;;5001784;28;20209;-85
2023/01/01 12:04:44;;;;;;;5.30;2.95;;;15.10;99.90;;;;;;4996611;28;20233;-85
2023/01/01 12:07:15;;;;;;;3.08;2.15;;;14.80;99.90;;;;;;4983545;28;20181;-85
2023/01/01 12:09:47;;;;;;;3.35;1.83;;;14.60;99.90;;;;;;5005047;28;20185;-84
2023/01/01 12:12:35;;;;;;;2.38;1.88;;;14.30;99.90;;;;;;4989575;28;20192;-84
2023/01/01 12:15:23;;;;;;;4.38;2.92;;;14.10;99.90;;;;;;4962993;28;20197;-82
2023/01/01 12:18:24;;;;;;;7.57;2.70;;;13.90;99.90;;;;;;4994299;28;20678;-84
2023/01/01 12:20:57;;;;;;;3.47;2.08;;;13.80;99.90;;;;;;4997979;28;20662;-84
2023/01/01 12:23:23;;;;;;;4.25;2.35;;;13.60;99.90;;;;;;4986061;28;20181;-85
2023/01/01 12:26:11;;;;;;;4.68;2.60;;;13.60;99.90;;;;;;4979996;28;20658;-83
2023/01/01 12:28:48;;;;;;;4.85;2.63;;;13.60;99.90;;;;;;5000884;28;20268;-84
2023/01/01 12:31:40;;;;;;;3.92;2.80;;;13.70;99.90;;;;;;4994278;28;20181;-84
2023/01/01 12:34:33;;;;;;;5.30;2.25;;;14.10;99.90;;;;;;4981915;28;20276;-85
2023/01/01 12:37:05;;;;;;;5.05;2.70;;;14.50;99.90;;;;;;4983050;28;20228;-85
2023/01/01 12:39:49;;;;;;;3.20;2.10;;;14.90;99.90;;;;;;4993176;28;20201;-85
2023/01/01 12:42:31;;;;;;;6.15;2.97;;;15.00;99.90;;;;;;4977393;28;20671;-84
2023/01/01 12:45:22;;;;;;;6.13;2.95;;;14.80;99.90;;;;;;5004610;28;20228;-84
2023/01/01 12:48:16;;;;;;;4.90;2.47;;;14.50;99.90;;;;;;4981806;28;20244;-84
2023/01/01 12:51:00;;;;;;;4.00;2.05;;;14.40;99.90;;;;;;5010183;28;20190;-85
2023/01/01 12:53:46;;;;;;;4.03;2.10;;;14.60;99.90;;;;;;4992292;28;20228;-85
2023/01/01 12:56:26;;;;;;;3.47;2.53;;;14.60;99.90;;;;;;4989726;28;20169;-84
2023/01/01 12:59:06;;;;;;;4.50;2.22;;;14.50;99.90;;;;;;4991150;28;20188;-84
2023/01/01 13:01:34;;;;;;;3.60;2.17;;;14.10;99.90;;;;;;4980263;28;20212;-85
2023/01/01 13:04:00;;;;;;;3.83;2.08;;;13.90;99.90;;;;;;4987211;28;20232;-84
2023/01/01 13:06:48;;;;;;;2.17;1.95;;;13.70;99.90;;;;;;4987808;28;20177;-84
2023/01/01 13:09:20;;;;;;;4.13;2.10;;;13.60;99.90;;;;;;4988462;28;20975;-85
2023/01/01 13:11:51;;;;;;;4.80;2.53;;;13.50;99.90;;;;;;4987076;28;20182;-85